Estación municipal de Cercs - St.Jordi (Berguedà, )

Consulta los datos en tiempo real de la estación municipal de Cercs - St.Jordi





Hora UTC 14:15
Temperatura 20.3 ºC
Humedad 46.1 %
Presión 1009.9 hPa
Pluja 0.0 mm
Velocidad viento 4.8 km/h
Dirección viento S
Radiación solar 222.4 W/m²

Datos diarios 2026-05-10



Hora UTC (invierno +1h; verano +2h)
Temperatura (ºC) Humedad (%) Presión (hPa) Velocidad viento (km/h) Precipitación (mm) Radiación solar (W/m²)
Hora UTC Aire Humedad Presión Vel. Dir. Vel. Max Dir. Intent. máx 5 min. Rad. Sol.
00:05 10.4 96.2 1012.5 0.0 NNE 0.0 SE 0.0 0.1
00:10 10.3 96.1 1012.5 0.0 NNE 0.0 SE 0.0 0.1
00:15 10.2 96.1 1012.5 0.0 NNE 0.0 SSW 0.0 0.2
00:20 10.0 96.1 1012.5 0.0 NNE 0.0 WSW 0.0 0.1
00:25 9.9 96.2 1012.5 0.0 NNE 0.0 W 0.0 0.2
00:30 10.0 96.5 1012.4 0.0 NNE 0.0 WNW 0.0 0.2
00:35 9.8 96.1 1012.4 0.0 NNE 0.0 WNW 0.0 0.2
00:40 9.5 96.0 1012.3 0.0 NNE 0.0 WSW 0.0 0.1
00:45 9.5 96.3 1012.2 0.0 NNE 0.0 W 0.0 0.1
00:50 9.4 96.2 1012.3 0.0 NNE 0.0 W 0.0 0.2
00:55 9.1 96.1 1012.3 0.0 NNE 0.0 SW 0.0 0.2
01:00 9.1 96.5 1012.2 0.0 NNE 0.0 W 0.0 0.2
01:05 9.1 96.6 1012.1 0.0 NNE 0.0 W 0.0 0.2
01:10 8.9 96.5 1012.2 0.0 NNE 0.0 WSW 0.0 0.2
01:15 8.9 96.6 1012.2 0.0 NNE 0.0 W 0.0 0.2
01:20 8.8 96.7 1012.1 0.0 NNE 0.0 WSW 0.0 0.2
01:25 8.8 96.8 1012.1 0.0 NNE 0.0 W 0.0 0.2
01:30 8.8 96.9 1012.1 0.0 NNE 0.0 W 0.0 0.2
01:35 8.7 96.8 1012.1 0.0 NNE 0.0 S 0.0 0.2
01:40 8.7 97.0 1012.1 0.0 NNE 0.0 SW 0.0 0.2
01:45 8.7 96.8 1012.1 0.0 NNE 0.0 SW 0.0 0.2
01:50 8.7 96.9 1012.1 0.0 NNE 0.0 WNW 0.0 0.2
01:55 8.6 96.7 1012.1 0.0 NNE 0.0 WNW 0.0 0.1
02:00 8.4 96.7 1012.2 0.0 NNE 0.0 S 0.0 0.2
02:05 8.6 97.2 1012.3 0.0 NNE 0.0 SW 0.0 0.2
02:10 8.9 97.5 1012.3 0.0 NNE 0.0 SW 0.0 0.1
02:15 9.0 97.4 1012.3 0.0 NNE 0.0 SW 0.0 0.2
02:20 8.8 97.1 1012.3 0.0 NNE 0.0 WSW 0.0 0.2
02:25 8.7 96.9 1012.2 0.0 NNE 0.0 W 0.0 0.2
02:30 8.6 97.0 1012.1 0.0 NNE 0.0 SSW 0.0 0.2
02:35 8.8 97.3 1012.1 0.0 NNE 0.0 SW 0.0 0.2
02:40 9.0 97.5 1012.1 0.0 NNE 0.0 NNE 0.0 0.2
02:45 9.0 97.5 1012.1 0.0 NNE 0.0 NE 0.0 0.1
02:50 8.9 97.4 1012.0 0.0 NNE 0.0 NW 0.0 0.2
02:55 8.9 97.4 1012.0 0.0 NNE 0.0 NNE 0.0 0.2
03:00 8.7 97.1 1011.9 0.0 NNE 0.0 WNW 0.0 0.2
03:05 8.4 96.9 1011.9 0.0 NNE 0.0 SW 0.0 0.2
03:10 8.4 97.1 1011.9 0.0 NNE 0.0 WSW 0.0 0.2
03:15 8.3 97.1 1011.8 0.0 NNE 0.0 SW 0.0 0.1
03:20 8.3 97.3 1011.8 0.0 NNE 0.0 W 0.0 0.1
03:25 8.5 97.5 1011.7 0.0 NNE 0.0 NE 0.0 0.1
03:30 8.5 97.5 1011.7 0.0 NNE 0.0 NNE 0.0 0.2
03:35 8.2 97.2 1011.6 0.0 NNE 0.0 SSW 0.0 0.2
03:40 8.1 97.3 1011.6 0.0 NNE 0.0 WSW 0.0 0.1
03:45 8.0 97.3 1011.6 0.0 NNE 0.0 SSW 0.0 0.1
03:50 7.9 97.3 1011.6 0.0 NNE 0.0 SE 0.0 0.2
03:55 7.8 97.4 1011.6 0.0 NNE 0.0 NW 0.0 0.2
04:00 7.7 97.3 1011.6 0.0 NNE 0.0 NNE 0.0 0.2
04:05 7.7 97.4 1011.6 0.0 NNE 0.0 SSE 0.0 0.2
04:10 7.6 97.5 1011.6 0.0 NNE 0.0 SW 0.0 0.2
04:15 7.7 97.7 1011.6 0.0 NNE 0.0 SW 0.0 0.4
04:20 7.8 97.8 1011.6 0.0 NNE 0.0 NW 0.0 0.6
04:25 7.8 97.7 1011.6 0.0 NNE 0.0 WSW 0.0 1.2
04:30 7.7 97.6 1011.6 0.0 NNE 0.0 SSE 0.0 2.3
04:35 7.8 97.8 1011.6 0.0 NNE 0.0 W 0.0 3.8
04:40 8.0 98.1 1011.5 0.0 NNE 0.0 WNW 0.0 5.2
04:45 8.2 97.9 1011.5 0.0 NNE 0.0 W 0.0 6.5
04:50 8.1 97.6 1011.5 0.0 NNE 0.0 NW 0.0 7.9
04:55 8.0 97.6 1011.5 0.0 NNE 0.0 WSW 0.0 9.2
05:00 8.0 97.6 1011.5 0.0 NNE 0.0 WSW 0.0 10.4
05:05 8.0 97.4 1011.5 0.0 NNE 0.0 SW 0.0 11.6
05:10 7.9 97.4 1011.5 0.0 NNE 0.0 SW 0.0 12.6
05:15 7.8 97.3 1011.5 0.0 NNE 0.0 SW 0.0 13.9
05:20 7.9 97.5 1011.6 0.0 NNE 0.0 SW 0.0 15.5
05:25 8.1 97.6 1011.6 0.0 NNE 0.0 NNE 0.0 23.3
05:30 8.2 97.6 1011.6 0.0 NNE 0.0 W 0.0 36.5
05:35 8.5 97.6 1011.6 0.0 NNE 0.0 NW 0.0 39.8
05:40 8.6 97.3 1011.7 0.0 NNE 0.0 ENE 0.0 32.3
05:45 8.7 97.1 1011.7 0.0 N 6.1 NNE 0.0 53.6
05:50 8.8 96.9 1011.7 0.4 NW 8.8 NW 0.0 63.7
05:55 9.0 96.8 1011.6 0.0 NNE 6.1 NE 0.0 65.7
06:00 9.1 96.4 1011.6 0.5 NNE 11.5 NNE 0.0 59.3
06:05 9.3 95.8 1011.6 0.3 NNE 11.5 N 0.0 66.4
06:10 9.6 94.7 1011.6 1.1 NE 11.5 NE 0.0 84.0
06:15 9.6 94.1 1011.6 3.0 NNE 14.2 NE 0.0 108.7
06:20 9.7 94.2 1011.6 0.0 NE 6.1 NE 0.0 104.5
06:25 10.0 93.7 1011.6 0.4 ENE 8.8 NE 0.0 148.0
06:30 10.3 93.0 1011.6 0.1 NE 8.8 ENE 0.0 177.4
06:35 10.4 92.4 1011.6 0.4 ENE 8.8 NE 0.0 180.1
06:40 10.4 92.0 1011.6 1.3 NE 11.5 NE 0.0 167.8
06:45 10.4 91.7 1011.6 1.0 NE 11.5 ENE 0.0 136.7
06:50 10.5 92.0 1011.7 1.0 NE 11.5 NE 0.0 119.3
06:55 10.7 91.2 1011.7 0.3 NE 8.8 NE 0.0 83.1
07:00 10.9 91.2 1011.7 0.5 ENE 8.8 NE 0.0 94.9
07:05 11.1 91.3 1011.7 0.0 NNE 0.0 NE 0.0 67.1
07:10 11.0 89.7 1011.8 0.0 NNE 0.0 ENE 0.0 61.6
07:15 11.1 90.2 1011.7 0.0 NNE 0.0 NE 0.0 56.7
07:20 11.2 90.1 1011.8 0.0 NNE 0.0 ESE 0.0 61.8
07:25 11.5 89.3 1011.8 0.0 NNE 0.0 ESE 0.0 54.5
07:30 11.5 88.8 1011.9 0.0 NNE 0.0 ESE 0.0 78.2
07:35 11.8 88.6 1011.9 0.0 NNE 0.0 SE 0.0 78.6
07:40 12.1 87.8 1011.9 0.0 NNE 0.0 ENE 0.0 130.8
07:45 12.2 86.0 1011.9 0.0 NNE 0.0 S 0.0 156.6
07:50 12.2 86.4 1011.9 0.0 ESE 3.4 ESE 0.0 117.0
07:55 12.6 86.7 1012.0 0.3 SSE 8.8 S 0.0 126.9
08:00 12.7 86.9 1012.0 2.5 ESE 14.2 ESE 0.0 77.2
08:05 13.0 87.4 1012.0 1.1 SE 16.9 SE 0.0 83.8
08:10 13.1 85.7 1012.0 1.5 ESE 14.2 E 0.0 83.1
08:15 13.1 85.4 1012.0 1.5 SE 14.2 E 0.0 94.8
08:20 13.3 85.2 1012.1 2.8 SE 14.2 ESE 0.0 120.4
08:25 13.4 83.9 1012.1 1.9 ESE 14.2 ESE 0.0 154.6
08:30 13.4 82.6 1012.1 1.5 ESE 11.5 ESE 0.0 605.3
08:35 13.2 83.0 1012.1 0.6 E 8.8 ENE 0.0 497.8
08:40 13.1 83.0 1012.1 0.8 E 11.5 ENE 0.0 677.9
08:45 13.4 83.0 1012.0 0.5 ENE 14.2 ENE 0.0 731.4
08:50 14.0 82.4 1012.0 1.9 SSE 14.2 SE 0.0 768.0
08:55 14.4 79.5 1012.0 3.7 ESE 19.6 ESE 0.0 624.6
09:00 14.4 79.9 1012.0 1.2 ESE 14.2 ENE 0.0 725.8
09:05 14.8 80.1 1012.0 0.9 SSE 11.5 SSE 0.0 659.7
09:10 14.7 79.8 1012.0 1.4 SSE 14.2 SE 0.0 634.2
09:15 14.8 78.9 1012.0 0.3 SE 11.5 SSE 0.0 666.7
09:20 15.0 78.5 1012.1 0.6 ESE 14.2 ESE 0.0 548.0
09:25 14.9 78.4 1012.1 2.5 SE 14.2 ENE 0.0 382.2
09:30 14.5 80.3 1012.2 0.8 SE 16.9 SE 0.0 304.6
09:35 14.3 80.1 1012.2 0.0 NNE 0.0 ESE 0.0 243.8
09:40 13.9 82.3 1012.3 0.0 NNE 0.0 ENE 0.0 266.3
09:45 13.8 83.6 1012.3 0.0 NNE 0.0 WNW 0.0 228.3
09:50 13.5 84.3 1012.2 0.0 NNE 0.0 SSW 0.0 206.4
09:55 13.4 85.2 1012.2 0.0 NNE 0.0 SE 0.0 244.3
10:00 13.4 85.6 1012.2 0.0 NNE 0.0 SE 0.0 286.8
10:05 13.4 85.0 1012.2 0.0 NNE 0.0 ESE 0.0 301.2
10:10 13.4 85.6 1012.1 0.0 NNE 0.0 ENE 0.0 489.9
10:15 13.9 85.0 1012.0 0.0 NNE 0.0 SSE 0.0 424.2
10:20 14.2 83.3 1012.0 0.0 NNE 0.0 SSE 0.0 547.2
10:25 14.5 82.3 1011.9 0.0 NNE 0.0 ENE 0.0 758.5
10:30 15.1 80.2 1011.8 0.0 NNE 0.0 W 0.0 448.6
10:35 15.2 81.3 1011.8 0.0 NNE 0.0 NE 0.0 624.2
10:40 15.7 78.6 1011.6 0.8 NE 14.2 NE 0.0 807.0
10:45 15.8 78.7 1011.6 0.0 NNE 3.4 NNE 0.0 978.0
10:50 16.4 77.3 1011.5 0.0 NNE 0.0 NW 0.0 970.0
10:55 17.1 75.1 1011.5 0.8 NNE 14.2 NE 0.0 864.0
11:00 17.2 73.3 1011.4 0.9 NNE 11.5 NE 0.0 566.8
11:05 17.2 74.0 1011.4 0.6 NE 8.8 NNE 0.0 359.2
11:10 17.3 71.5 1011.3 3.5 NE 11.5 ENE 0.0 270.1
11:15 17.7 70.4 1011.3 0.5 SSW 8.8 S 0.0 555.1
11:20 18.6 66.7 1011.2 1.5 SSE 11.5 SE 0.0 504.2
11:25 18.8 64.3 1011.0 2.8 E 14.2 SE 0.0 398.1
11:30 19.1 60.3 1011.0 1.5 ESE 14.2 ESE 0.0 766.2
11:35 19.5 57.3 1011.0 0.8 ESE 11.5 ESE 0.0 371.6
11:40 19.5 55.8 1010.9 0.0 NNE 0.0 NNE 0.0 342.4
11:45 19.7 58.4 1010.8 3.8 S 14.2 SSW 0.0 936.0
11:50 20.1 53.6 1010.8 4.6 S 14.2 S 0.0 350.9
11:55 19.8 54.8 1010.8 9.4 SSW 22.3 SSW 0.0 319.2
12:00 19.4 51.8 1010.8 7.9 S 19.6 S 0.0 515.4
12:05 19.6 52.2 1010.8 3.7 SSW 14.2 S 0.0 390.3
12:10 19.6 53.7 1010.8 6.5 S 16.9 S 0.0 317.9
12:15 19.5 53.5 1010.8 7.9 S 19.6 S 0.0 938.0
12:20 20.4 50.6 1010.7 10.7 SSW 22.3 SSW 0.0 909.0
12:25 20.4 48.4 1010.6 8.6 S 25.0 SSE 0.0 310.9
12:30 19.9 53.1 1010.6 4.6 S 14.2 SSW 0.0 216.2
12:35 19.4 55.5 1010.6 8.4 SE 19.6 SSE 0.0 223.6
12:40 19.1 54.2 1010.5 8.9 SSE 25.0 SE 0.0 214.6
12:45 18.9 55.7 1010.5 7.3 SE 22.3 SE 0.0 187.5
12:50 18.5 57.5 1010.5 9.8 SSE 27.7 SW 0.0 219.5
12:55 18.5 54.8 1010.6 5.3 SSW 14.2 SSW 0.0 393.7
13:00 19.2 54.4 1010.6 5.3 S 14.2 SSE 0.0 830.0
13:05 19.7 52.1 1010.5 6.3 S 22.3 SE 0.0 507.8
13:10 19.9 51.1 1010.6 7.0 SW 16.9 W 0.0 399.2
13:15 19.9 46.2 1010.5 7.2 WSW 16.9 NW 0.0 832.0
13:20 20.4 46.7 1010.5 7.5 SSW 14.2 S 0.0 526.2
13:25 20.1 49.1 1010.4 6.7 SSE 16.9 SSE 0.0 232.0
13:30 19.8 50.9 1010.3 6.4 SSE 16.9 SSE 0.0 263.5
13:35 19.6 48.9 1010.2 4.9 S 14.2 SSE 0.0 175.4
13:40 19.1 46.3 1010.2 13.5 SSW 27.7 SSW 0.0 194.5
13:45 18.9 46.3 1010.2 10.4 S 22.3 SSE 0.0 156.4
13:50 18.9 46.5 1010.2 7.2 S 16.9 SSE 0.0 223.3
13:55 19.1 47.0 1010.2 5.6 SW 11.5 SSW 0.0 429.9
14:00 19.6 43.9 1010.1 3.8 WSW 8.8 SSW 0.0 239.5
14:05 19.5 45.0 1010.0 7.7 SSW 16.9 S 0.0 477.3
14:10 20.1 44.4 1010.0 8.5 S 27.7 SW 0.0 665.8
14:15 20.3 46.1 1009.9 4.8 S 11.5 SSE 0.0 222.4
Máxima 20.4 98.1 1012.5 13.5 SSW 27.7 SW 0.0 978.0
Mínima 7.6 43.9 1009.9
Total 0.0